Hauptseite
METAR-TAF:

METAR-TAF

Flughäfen :

Inverness, Schottland

Flughafen Inverness

Breite: 57-32N, Länge: 004-03W, Höhe: 9 m

Beobachtung

Neuester Wetterbericht von vor 38 Minuten, um 14:50 UTC
Wind 3 kt aus unterschiedlichen Richtungen
Temperatur 17°C
Luftfeuchtigkeit 48%
Luftdruck 1014 hPa
Sichtweite 10 km oder mehr
Leicht bewölkt in der Höhe von 4800 ft

METAR: EGPE 211450Z VRB03KT 9999 FEW048 17/06 Q1014

Zeit: 16:28 (15:28 UTC)

Prognose

Neuester Wetterbericht von vor 1 Stunde und 34 Minuten, um 13:54 UTC
Gültige Prognose vom 21 um 15 UTC bis 21 um 24 UTC
Wind 3 kt aus unterschiedlichen Richtungen
Sichtweite 10 km oder mehr
Leicht bewölkt in der Höhe von 4500 ft

TAF: EGPE 211354Z 2115/2124 VRB03KT 9999 FEW045

Wetterbeobachtungen und Prognosen von mehr als 4000 Flughäfen (METAR und TAF Bericht).

Die verfügbaren Stationen werden durch gelbe und rote Markierungen auf der Karte dargestellt.

Führen Sie die Maus auf sie, um den Namen der Station zu sehen.

Darauf klicken, um die Beobachtung von Wetterbeobachtungen und Prognosen zu sehen.

Um die Karte zu ändern : klicken Sie auf den grünen Tasten mit einem schwarzen Kreuz Zum Vergrößern, auf den grünen Button mit einem Gedankenstrich zu verkleinern, oder auf die grünen Pfeile für benachbarte Karten.


METAR-TAF: